sensor_id;sensor_type;location;lat;lon;timestamp;P1;durP1;ratioP1;P2;durP2;ratioP2
26014;SDS011;13793;55.388;37.844;2022-11-20T00:02:06;22.87;;;13.30;;
26014;SDS011;13793;55.388;37.844;2022-11-20T00:04:37;23.53;;;13.67;;
26014;SDS011;13793;55.388;37.844;2022-11-20T00:07:08;23.23;;;13.23;;
26014;SDS011;13793;55.388;37.844;2022-11-20T00:09:39;22.23;;;13.70;;
26014;SDS011;13793;55.388;37.844;2022-11-20T00:12:09;23.07;;;13.67;;
26014;SDS011;13793;55.388;37.844;2022-11-20T00:14:40;23.33;;;13.60;;
26014;SDS011;13793;55.388;37.844;2022-11-20T00:17:11;23.77;;;14.00;;
26014;SDS011;13793;55.388;37.844;2022-11-20T00:19:41;23.43;;;13.33;;
26014;SDS011;13793;55.388;37.844;2022-11-20T00:22:12;22.63;;;13.83;;
26014;SDS011;13793;55.388;37.844;2022-11-20T00:24:43;22.73;;;13.77;;
26014;SDS011;13793;55.388;37.844;2022-11-20T00:27:14;26.33;;;14.87;;
26014;SDS011;13793;55.388;37.844;2022-11-20T00:29:45;25.50;;;13.07;;
26014;SDS011;13793;55.388;37.844;2022-11-20T00:32:15;23.73;;;14.00;;
26014;SDS011;13793;55.388;37.844;2022-11-20T00:34:46;24.67;;;14.33;;
26014;SDS011;13793;55.388;37.844;2022-11-20T00:37:17;24.87;;;14.47;;
26014;SDS011;13793;55.388;37.844;2022-11-20T00:39:48;26.83;;;14.30;;
26014;SDS011;13793;55.388;37.844;2022-11-20T00:42:18;26.33;;;15.33;;
26014;SDS011;13793;55.388;37.844;2022-11-20T00:44:49;26.03;;;15.03;;
26014;SDS011;13793;55.388;37.844;2022-11-20T00:47:19;26.50;;;14.23;;
26014;SDS011;13793;55.388;37.844;2022-11-20T00:49:50;29.17;;;15.53;;
26014;SDS011;13793;55.388;37.844;2022-11-20T00:52:21;27.97;;;15.47;;
26014;SDS011;13793;55.388;37.844;2022-11-20T00:54:52;25.47;;;14.33;;
26014;SDS011;13793;55.388;37.844;2022-11-20T00:57:22;25.40;;;14.83;;
26014;SDS011;13793;55.388;37.844;2022-11-20T00:59:53;27.50;;;15.20;;
26014;SDS011;13793;55.388;37.844;2022-11-20T01:02:24;28.33;;;15.97;;
26014;SDS011;13793;55.388;37.844;2022-11-20T01:04:54;27.67;;;15.90;;
26014;SDS011;13793;55.388;37.844;2022-11-20T01:07:25;25.97;;;15.77;;
26014;SDS011;13793;55.388;37.844;2022-11-20T01:09:56;28.60;;;16.10;;
26014;SDS011;13793;55.388;37.844;2022-11-20T01:12:28;27.13;;;16.23;;
26014;SDS011;13793;55.388;37.844;2022-11-20T01:14:59;26.93;;;15.90;;
26014;SDS011;13793;55.388;37.844;2022-11-20T01:17:30;30.17;;;16.23;;
26014;SDS011;13793;55.388;37.844;2022-11-20T01:20:01;27.30;;;15.37;;
26014;SDS011;13793;55.388;37.844;2022-11-20T01:22:32;27.70;;;16.50;;
26014;SDS011;13793;55.388;37.844;2022-11-20T01:25:03;27.13;;;15.97;;
26014;SDS011;13793;55.388;37.844;2022-11-20T01:27:34;26.70;;;15.97;;
26014;SDS011;13793;55.388;37.844;2022-11-20T01:30:05;28.53;;;15.47;;
26014;SDS011;13793;55.388;37.844;2022-11-20T01:32:36;28.23;;;16.57;;
26014;SDS011;13793;55.388;37.844;2022-11-20T01:35:07;26.93;;;15.13;;
26014;SDS011;13793;55.388;37.844;2022-11-20T01:37:38;25.07;;;15.03;;
26014;SDS011;13793;55.388;37.844;2022-11-20T01:40:09;26.23;;;14.50;;
26014;SDS011;13793;55.388;37.844;2022-11-20T01:42:44;24.77;;;14.63;;
26014;SDS011;13793;55.388;37.844;2022-11-20T01:51:35;22.20;;;13.93;;
26014;SDS011;13793;55.388;37.844;2022-11-20T01:54:11;25.00;;;14.10;;
26014;SDS011;13793;55.388;37.844;2022-11-20T01:56:43;27.77;;;15.07;;
26014;SDS011;13793;55.388;37.844;2022-11-20T01:59:15;25.27;;;14.83;;
26014;SDS011;13793;55.388;37.844;2022-11-20T02:01:46;23.17;;;13.60;;
26014;SDS011;13793;55.388;37.844;2022-11-20T02:04:17;25.77;;;14.77;;
26014;SDS011;13793;55.388;37.844;2022-11-20T02:06:53;25.63;;;15.10;;
26014;SDS011;13793;55.388;37.844;2022-11-20T02:09:30;24.03;;;13.60;;
26014;SDS011;13793;55.388;37.844;2022-11-20T02:12:01;25.57;;;13.47;;
26014;SDS011;13793;55.388;37.844;2022-11-20T02:14:33;24.03;;;13.83;;
26014;SDS011;13793;55.388;37.844;2022-11-20T02:17:04;22.10;;;13.40;;
26014;SDS011;13793;55.388;37.844;2022-11-20T02:19:35;23.57;;;13.63;;
26014;SDS011;13793;55.388;37.844;2022-11-20T02:22:18;24.37;;;14.43;;
26014;SDS011;13793;55.388;37.844;2022-11-20T02:24:46;23.70;;;14.30;;
26014;SDS011;13793;55.388;37.844;2022-11-20T02:27:17;25.37;;;14.73;;
26014;SDS011;13793;55.388;37.844;2022-11-20T02:30:00;22.53;;;14.00;;
26014;SDS011;13793;55.388;37.844;2022-11-20T02:32:31;24.57;;;13.87;;
26014;SDS011;13793;55.388;37.844;2022-11-20T02:35:35;24.80;;;13.37;;
26014;SDS011;13793;55.388;37.844;2022-11-20T02:37:53;24.80;;;14.23;;
26014;SDS011;13793;55.388;37.844;2022-11-20T02:40:24;23.63;;;13.30;;
26014;SDS011;13793;55.388;37.844;2022-11-20T02:42:55;24.30;;;14.27;;
26014;SDS011;13793;55.388;37.844;2022-11-20T02:45:26;22.83;;;13.53;;
26014;SDS011;13793;55.388;37.844;2022-11-20T02:47:57;25.33;;;13.67;;
26014;SDS011;13793;55.388;37.844;2022-11-20T02:50:28;24.53;;;13.67;;
26014;SDS011;13793;55.388;37.844;2022-11-20T02:52:59;25.60;;;14.23;;
26014;SDS011;13793;55.388;37.844;2022-11-20T02:55:30;23.17;;;13.40;;
26014;SDS011;13793;55.388;37.844;2022-11-20T02:58:00;21.97;;;13.43;;
26014;SDS011;13793;55.388;37.844;2022-11-20T03:00:31;22.67;;;14.00;;
26014;SDS011;13793;55.388;37.844;2022-11-20T03:03:02;23.77;;;14.13;;
26014;SDS011;13793;55.388;37.844;2022-11-20T03:05:32;23.87;;;13.80;;
26014;SDS011;13793;55.388;37.844;2022-11-20T03:08:03;24.93;;;13.77;;
26014;SDS011;13793;55.388;37.844;2022-11-20T03:10:34;23.47;;;13.97;;
26014;SDS011;13793;55.388;37.844;2022-11-20T03:13:04;24.80;;;14.17;;
26014;SDS011;13793;55.388;37.844;2022-11-20T03:15:35;25.73;;;14.47;;
26014;SDS011;13793;55.388;37.844;2022-11-20T03:18:06;26.27;;;14.30;;
26014;SDS011;13793;55.388;37.844;2022-11-20T03:20:37;26.87;;;15.00;;
26014;SDS011;13793;55.388;37.844;2022-11-20T03:23:08;24.43;;;14.50;;
26014;SDS011;13793;55.388;37.844;2022-11-20T03:25:38;25.87;;;14.43;;
26014;SDS011;13793;55.388;37.844;2022-11-20T03:28:09;24.30;;;14.33;;
26014;SDS011;13793;55.388;37.844;2022-11-20T03:30:40;25.40;;;13.63;;
26014;SDS011;13793;55.388;37.844;2022-11-20T03:33:11;25.67;;;13.83;;
26014;SDS011;13793;55.388;37.844;2022-11-20T03:35:42;22.63;;;13.43;;
26014;SDS011;13793;55.388;37.844;2022-11-20T03:38:12;25.63;;;14.70;;
26014;SDS011;13793;55.388;37.844;2022-11-20T03:40:43;24.70;;;13.90;;
26014;SDS011;13793;55.388;37.844;2022-11-20T03:43:14;24.30;;;13.43;;
26014;SDS011;13793;55.388;37.844;2022-11-20T03:45:45;23.07;;;13.07;;
26014;SDS011;13793;55.388;37.844;2022-11-20T03:48:16;23.83;;;13.27;;
26014;SDS011;13793;55.388;37.844;2022-11-20T03:50:47;24.50;;;12.70;;
26014;SDS011;13793;55.388;37.844;2022-11-20T03:53:18;22.70;;;12.97;;
26014;SDS011;13793;55.388;37.844;2022-11-20T03:55:52;23.73;;;13.23;;
26014;SDS011;13793;55.388;37.844;2022-11-20T03:58:23;23.03;;;13.00;;
26014;SDS011;13793;55.388;37.844;2022-11-20T04:00:54;22.73;;;13.57;;
26014;SDS011;13793;55.388;37.844;2022-11-20T04:03:25;22.80;;;13.77;;
26014;SDS011;13793;55.388;37.844;2022-11-20T04:05:56;24.23;;;13.80;;
26014;SDS011;13793;55.388;37.844;2022-11-20T04:08:38;22.77;;;12.83;;
26014;SDS011;13793;55.388;37.844;2022-11-20T04:11:22;24.23;;;13.40;;
26014;SDS011;13793;55.388;37.844;2022-11-20T04:13:59;22.97;;;13.67;;
26014;SDS011;13793;55.388;37.844;2022-11-20T04:16:29;21.43;;;13.10;;
26014;SDS011;13793;55.388;37.844;2022-11-20T04:19:01;24.90;;;13.27;;
26014;SDS011;13793;55.388;37.844;2022-11-20T04:21:33;22.10;;;13.30;;
26014;SDS011;13793;55.388;37.844;2022-11-20T04:24:07;22.70;;;13.03;;
26014;SDS011;13793;55.388;37.844;2022-11-20T04:26:40;23.03;;;13.37;;
26014;SDS011;13793;55.388;37.844;2022-11-20T04:29:11;24.17;;;13.70;;
26014;SDS011;13793;55.388;37.844;2022-11-20T04:31:42;21.03;;;12.67;;
26014;SDS011;13793;55.388;37.844;2022-11-20T04:34:13;23.07;;;13.90;;
26014;SDS011;13793;55.388;37.844;2022-11-20T04:36:44;23.87;;;13.20;;
26014;SDS011;13793;55.388;37.844;2022-11-20T04:39:14;22.93;;;12.67;;
26014;SDS011;13793;55.388;37.844;2022-11-20T04:41:45;21.40;;;12.67;;
26014;SDS011;13793;55.388;37.844;2022-11-20T04:44:16;24.40;;;13.17;;
26014;SDS011;13793;55.388;37.844;2022-11-20T04:46:47;22.70;;;12.57;;
26014;SDS011;13793;55.388;37.844;2022-11-20T04:49:18;24.70;;;13.43;;
26014;SDS011;13793;55.388;37.844;2022-11-20T04:51:49;23.93;;;13.20;;
26014;SDS011;13793;55.388;37.844;2022-11-20T04:54:22;22.80;;;13.20;;
26014;SDS011;13793;55.388;37.844;2022-11-20T04:56:54;19.83;;;11.90;;
26014;SDS011;13793;55.388;37.844;2022-11-20T04:59:24;24.83;;;13.37;;
26014;SDS011;13793;55.388;37.844;2022-11-20T05:01:55;20.40;;;13.03;;
26014;SDS011;13793;55.388;37.844;2022-11-20T05:04:26;21.17;;;12.53;;
26014;SDS011;13793;55.388;37.844;2022-11-20T05:06:57;22.03;;;12.60;;
26014;SDS011;13793;55.388;37.844;2022-11-20T05:09:28;20.27;;;12.40;;
26014;SDS011;13793;55.388;37.844;2022-11-20T05:11:59;24.03;;;13.70;;
26014;SDS011;13793;55.388;37.844;2022-11-20T05:14:29;22.33;;;13.23;;
26014;SDS011;13793;55.388;37.844;2022-11-20T05:17:00;22.03;;;12.77;;
26014;SDS011;13793;55.388;37.844;2022-11-20T05:19:31;23.63;;;13.43;;
26014;SDS011;13793;55.388;37.844;2022-11-20T05:22:02;22.47;;;13.27;;
26014;SDS011;13793;55.388;37.844;2022-11-20T05:24:33;21.33;;;12.63;;
26014;SDS011;13793;55.388;37.844;2022-11-20T05:27:04;21.57;;;13.50;;
26014;SDS011;13793;55.388;37.844;2022-11-20T05:29:35;22.63;;;13.07;;
26014;SDS011;13793;55.388;37.844;2022-11-20T05:32:05;23.43;;;13.27;;
26014;SDS011;13793;55.388;37.844;2022-11-20T05:34:37;23.73;;;13.20;;
26014;SDS011;13793;55.388;37.844;2022-11-20T05:37:08;22.23;;;13.33;;
26014;SDS011;13793;55.388;37.844;2022-11-20T05:39:39;23.20;;;14.07;;
26014;SDS011;13793;55.388;37.844;2022-11-20T05:42:10;21.47;;;13.20;;
26014;SDS011;13793;55.388;37.844;2022-11-20T05:45:00;22.53;;;12.57;;
26014;SDS011;13793;55.388;37.844;2022-11-20T05:47:33;22.60;;;13.57;;
26014;SDS011;13793;55.388;37.844;2022-11-20T05:50:04;22.70;;;13.83;;
26014;SDS011;13793;55.388;37.844;2022-11-20T05:52:35;23.10;;;13.30;;
26014;SDS011;13793;55.388;37.844;2022-11-20T05:55:06;22.63;;;13.00;;
26014;SDS011;13793;55.388;37.844;2022-11-20T05:57:39;22.37;;;13.33;;
26014;SDS011;13793;55.388;37.844;2022-11-20T06:00:10;25.53;;;13.43;;
26014;SDS011;13793;55.388;37.844;2022-11-20T06:02:41;22.33;;;13.93;;
26014;SDS011;13793;55.388;37.844;2022-11-20T06:05:12;20.03;;;12.60;;
26014;SDS011;13793;55.388;37.844;2022-11-20T06:07:43;22.87;;;13.50;;
26014;SDS011;13793;55.388;37.844;2022-11-20T06:10:14;28.30;;;16.13;;
26014;SDS011;13793;55.388;37.844;2022-11-20T06:12:44;38.67;;;22.50;;
26014;SDS011;13793;55.388;37.844;2022-11-20T06:15:15;47.73;;;28.83;;
26014;SDS011;13793;55.388;37.844;2022-11-20T06:17:46;35.37;;;21.37;;
26014;SDS011;13793;55.388;37.844;2022-11-20T06:20:17;33.07;;;18.87;;
26014;SDS011;13793;55.388;37.844;2022-11-20T06:22:47;45.30;;;26.60;;
26014;SDS011;13793;55.388;37.844;2022-11-20T06:25:18;27.33;;;15.97;;
26014;SDS011;13793;55.388;37.844;2022-11-20T06:27:52;28.10;;;16.83;;
26014;SDS011;13793;55.388;37.844;2022-11-20T06:30:23;29.33;;;17.00;;
26014;SDS011;13793;55.388;37.844;2022-11-20T06:32:54;25.93;;;14.70;;
26014;SDS011;13793;55.388;37.844;2022-11-20T06:35:25;27.13;;;14.70;;
26014;SDS011;13793;55.388;37.844;2022-11-20T06:37:56;25.07;;;14.70;;
26014;SDS011;13793;55.388;37.844;2022-11-20T06:40:27;22.47;;;13.43;;
26014;SDS011;13793;55.388;37.844;2022-11-20T06:42:57;24.93;;;15.20;;
26014;SDS011;13793;55.388;37.844;2022-11-20T06:45:28;25.37;;;14.43;;
26014;SDS011;13793;55.388;37.844;2022-11-20T06:47:59;25.80;;;14.50;;
26014;SDS011;13793;55.388;37.844;2022-11-20T06:50:30;22.73;;;14.13;;
26014;SDS011;13793;55.388;37.844;2022-11-20T06:53:01;26.93;;;14.67;;
26014;SDS011;13793;55.388;37.844;2022-11-20T06:55:32;25.47;;;14.77;;
26014;SDS011;13793;55.388;37.844;2022-11-20T06:58:03;25.20;;;14.73;;
26014;SDS011;13793;55.388;37.844;2022-11-20T07:00:34;22.93;;;14.83;;
26014;SDS011;13793;55.388;37.844;2022-11-20T07:03:05;27.27;;;15.70;;
26014;SDS011;13793;55.388;37.844;2022-11-20T07:05:37;29.20;;;15.40;;
26014;SDS011;13793;55.388;37.844;2022-11-20T07:08:09;26.93;;;15.03;;
26014;SDS011;13793;55.388;37.844;2022-11-20T07:10:39;28.40;;;16.33;;
26014;SDS011;13793;55.388;37.844;2022-11-20T07:13:10;29.90;;;17.07;;
26014;SDS011;13793;55.388;37.844;2022-11-20T07:15:41;26.53;;;16.03;;
26014;SDS011;13793;55.388;37.844;2022-11-20T07:18:12;26.77;;;16.63;;
26014;SDS011;13793;55.388;37.844;2022-11-20T07:20:43;28.53;;;16.13;;
26014;SDS011;13793;55.388;37.844;2022-11-20T07:23:13;25.70;;;15.00;;
26014;SDS011;13793;55.388;37.844;2022-11-20T07:25:44;26.77;;;15.73;;
26014;SDS011;13793;55.388;37.844;2022-11-20T07:28:15;27.33;;;15.40;;
26014;SDS011;13793;55.388;37.844;2022-11-20T07:30:49;26.07;;;15.10;;
26014;SDS011;13793;55.388;37.844;2022-11-20T07:33:20;26.73;;;14.97;;
26014;SDS011;13793;55.388;37.844;2022-11-20T07:35:51;25.77;;;15.83;;
26014;SDS011;13793;55.388;37.844;2022-11-20T07:38:22;28.43;;;16.63;;
26014;SDS011;13793;55.388;37.844;2022-11-20T07:40:56;29.40;;;16.87;;
26014;SDS011;13793;55.388;37.844;2022-11-20T07:43:30;26.60;;;15.90;;
26014;SDS011;13793;55.388;37.844;2022-11-20T07:46:01;28.03;;;15.73;;
26014;SDS011;13793;55.388;37.844;2022-11-20T07:48:32;28.23;;;15.70;;
26014;SDS011;13793;55.388;37.844;2022-11-20T07:51:06;26.97;;;15.40;;
26014;SDS011;13793;55.388;37.844;2022-11-20T07:53:37;30.90;;;16.80;;
26014;SDS011;13793;55.388;37.844;2022-11-20T07:56:08;28.00;;;15.80;;
26014;SDS011;13793;55.388;37.844;2022-11-20T07:58:40;25.90;;;15.57;;
26014;SDS011;13793;55.388;37.844;2022-11-20T08:01:10;27.70;;;15.47;;
26014;SDS011;13793;55.388;37.844;2022-11-20T08:03:42;28.03;;;16.13;;
26014;SDS011;13793;55.388;37.844;2022-11-20T08:06:12;27.37;;;16.90;;
26014;SDS011;13793;55.388;37.844;2022-11-20T08:08:43;27.77;;;16.53;;
26014;SDS011;13793;55.388;37.844;2022-11-20T08:11:14;35.30;;;20.30;;
26014;SDS011;13793;55.388;37.844;2022-11-20T08:14:02;32.10;;;17.80;;
26014;SDS011;13793;55.388;37.844;2022-11-20T08:16:43;28.30;;;16.73;;
26014;SDS011;13793;55.388;37.844;2022-11-20T08:19:17;27.53;;;16.00;;
26014;SDS011;13793;55.388;37.844;2022-11-20T08:21:47;29.33;;;16.87;;
26014;SDS011;13793;55.388;37.844;2022-11-20T08:24:18;30.53;;;17.60;;
26014;SDS011;13793;55.388;37.844;2022-11-20T08:26:49;34.23;;;18.30;;
26014;SDS011;13793;55.388;37.844;2022-11-20T08:29:20;36.67;;;18.60;;
26014;SDS011;13793;55.388;37.844;2022-11-20T08:31:51;29.80;;;17.87;;
26014;SDS011;13793;55.388;37.844;2022-11-20T08:34:22;30.83;;;17.40;;
26014;SDS011;13793;55.388;37.844;2022-11-20T08:36:53;32.43;;;18.67;;
26014;SDS011;13793;55.388;37.844;2022-11-20T08:39:24;34.83;;;19.93;;
26014;SDS011;13793;55.388;37.844;2022-11-20T08:41:54;36.90;;;19.60;;
26014;SDS011;13793;55.388;37.844;2022-11-20T08:44:26;32.07;;;18.50;;
26014;SDS011;13793;55.388;37.844;2022-11-20T08:46:56;35.20;;;19.43;;
26014;SDS011;13793;55.388;37.844;2022-11-20T08:49:27;39.73;;;19.53;;
26014;SDS011;13793;55.388;37.844;2022-11-20T08:52:01;40.93;;;20.93;;
26014;SDS011;13793;55.388;37.844;2022-11-20T08:54:32;37.10;;;20.23;;
26014;SDS011;13793;55.388;37.844;2022-11-20T08:57:03;42.07;;;22.10;;
26014;SDS011;13793;55.388;37.844;2022-11-20T08:59:33;33.83;;;19.70;;
26014;SDS011;13793;55.388;37.844;2022-11-20T09:02:05;34.07;;;19.17;;
26014;SDS011;13793;55.388;37.844;2022-11-20T09:04:36;35.23;;;19.27;;
26014;SDS011;13793;55.388;37.844;2022-11-20T09:07:06;38.30;;;21.00;;
26014;SDS011;13793;55.388;37.844;2022-11-20T09:09:37;35.77;;;20.27;;
26014;SDS011;13793;55.388;37.844;2022-11-20T09:12:07;34.50;;;19.13;;
26014;SDS011;13793;55.388;37.844;2022-11-20T09:14:39;33.27;;;17.97;;
26014;SDS011;13793;55.388;37.844;2022-11-20T09:17:10;35.30;;;19.07;;
26014;SDS011;13793;55.388;37.844;2022-11-20T09:19:42;33.03;;;18.87;;
26014;SDS011;13793;55.388;37.844;2022-11-20T09:22:13;33.43;;;18.80;;
26014;SDS011;13793;55.388;37.844;2022-11-20T09:24:43;29.47;;;18.13;;
26014;SDS011;13793;55.388;37.844;2022-11-20T09:27:14;37.40;;;19.40;;
26014;SDS011;13793;55.388;37.844;2022-11-20T09:29:46;43.30;;;19.97;;
26014;SDS011;13793;55.388;37.844;2022-11-20T09:32:17;39.50;;;20.50;;
26014;SDS011;13793;55.388;37.844;2022-11-20T09:34:48;38.27;;;20.47;;
26014;SDS011;13793;55.388;37.844;2022-11-20T09:37:19;37.33;;;20.37;;
26014;SDS011;13793;55.388;37.844;2022-11-20T09:39:49;36.80;;;19.43;;
26014;SDS011;13793;55.388;37.844;2022-11-20T09:45:21;41.50;;;20.40;;
26014;SDS011;13793;55.388;37.844;2022-11-20T09:48:20;46.50;;;22.50;;
26014;SDS011;13793;55.388;37.844;2022-11-20T09:51:13;44.83;;;21.47;;
26014;SDS011;13793;55.388;37.844;2022-11-20T09:56:39;47.87;;;21.43;;
26014;SDS011;13793;55.388;37.844;2022-11-20T09:59:15;43.97;;;20.77;;
26014;SDS011;13793;55.388;37.844;2022-11-20T10:01:57;44.63;;;20.73;;
26014;SDS011;13793;55.388;37.844;2022-11-20T10:04:29;44.70;;;20.73;;
26014;SDS011;13793;55.388;37.844;2022-11-20T10:07:08;44.50;;;21.87;;
26014;SDS011;13793;55.388;37.844;2022-11-20T10:09:50;43.33;;;20.67;;
26014;SDS011;13793;55.388;37.844;2022-11-20T10:12:25;45.33;;;21.43;;
26014;SDS011;13793;55.388;37.844;2022-11-20T10:18:07;40.20;;;20.50;;
26014;SDS011;13793;55.388;37.844;2022-11-20T10:20:51;38.87;;;18.67;;
26014;SDS011;13793;55.388;37.844;2022-11-20T10:26:16;30.83;;;17.57;;
26014;SDS011;13793;55.388;37.844;2022-11-20T10:31:50;27.00;;;15.27;;
26014;SDS011;13793;55.388;37.844;2022-11-20T10:37:05;24.10;;;14.53;;
26014;SDS011;13793;55.388;37.844;2022-11-20T10:39:49;26.83;;;14.30;;
26014;SDS011;13793;55.388;37.844;2022-11-20T10:42:35;27.40;;;14.97;;
26014;SDS011;13793;55.388;37.844;2022-11-20T10:45:21;25.30;;;14.63;;
26014;SDS011;13793;55.388;37.844;2022-11-20T10:48:09;25.23;;;15.00;;
26014;SDS011;13793;55.388;37.844;2022-11-20T10:50:40;23.50;;;14.67;;
26014;SDS011;13793;55.388;37.844;2022-11-20T10:59:19;24.33;;;14.43;;
26014;SDS011;13793;55.388;37.844;2022-11-20T11:01:24;27.87;;;15.60;;
26014;SDS011;13793;55.388;37.844;2022-11-20T11:03:55;27.00;;;15.63;;
26014;SDS011;13793;55.388;37.844;2022-11-20T11:09:21;26.10;;;15.23;;
26014;SDS011;13793;55.388;37.844;2022-11-20T11:11:46;28.77;;;15.23;;
26014;SDS011;13793;55.388;37.844;2022-11-20T11:14:16;26.17;;;14.87;;
26014;SDS011;13793;55.388;37.844;2022-11-20T11:16:51;24.43;;;15.17;;
26014;SDS011;13793;55.388;37.844;2022-11-20T11:19:24;25.53;;;15.57;;
26014;SDS011;13793;55.388;37.844;2022-11-20T11:21:55;24.30;;;15.57;;
26014;SDS011;13793;55.388;37.844;2022-11-20T11:24:27;25.83;;;15.97;;
26014;SDS011;13793;55.388;37.844;2022-11-20T11:27:00;25.20;;;15.97;;
26014;SDS011;13793;55.388;37.844;2022-11-20T11:29:33;33.17;;;19.13;;
26014;SDS011;13793;55.388;37.844;2022-11-20T11:34:40;25.20;;;15.55;;
26014;SDS011;13793;55.388;37.844;2022-11-20T11:37:18;25.67;;;15.20;;
26014;SDS011;13793;55.388;37.844;2022-11-20T11:39:50;26.10;;;16.03;;
26014;SDS011;13793;55.388;37.844;2022-11-20T11:42:21;25.40;;;15.97;;
26014;SDS011;13793;55.388;37.844;2022-11-20T11:44:55;22.53;;;15.67;;
26014;SDS011;13793;55.388;37.844;2022-11-20T11:50:20;28.87;;;16.20;;
26014;SDS011;13793;55.388;37.844;2022-11-20T11:52:58;27.62;;;15.50;;
26014;SDS011;13793;55.388;37.844;2022-11-20T12:01:19;27.47;;;16.60;;
26014;SDS011;13793;55.388;37.844;2022-11-20T12:06:36;26.67;;;16.77;;
26014;SDS011;13793;55.388;37.844;2022-11-20T12:09:09;24.73;;;16.33;;
26014;SDS011;13793;55.388;37.844;2022-11-20T12:11:49;28.03;;;16.63;;
26014;SDS011;13793;55.388;37.844;2022-11-20T12:17:13;30.43;;;17.20;;
26014;SDS011;13793;55.388;37.844;2022-11-20T12:19:40;31.53;;;19.57;;
26014;SDS011;13793;55.388;37.844;2022-11-20T12:22:23;31.00;;;19.53;;
26014;SDS011;13793;55.388;37.844;2022-11-20T12:27:51;26.30;;;16.30;;
26014;SDS011;13793;55.388;37.844;2022-11-20T12:30:30;25.00;;;16.07;;
26014;SDS011;13793;55.388;37.844;2022-11-20T12:33:17;27.97;;;16.70;;
26014;SDS011;13793;55.388;37.844;2022-11-20T12:36:06;27.90;;;16.97;;
26014;SDS011;13793;55.388;37.844;2022-11-20T12:47:51;32.47;;;18.30;;
26014;SDS011;13793;55.388;37.844;2022-11-20T12:50:51;31.00;;;18.40;;
26014;SDS011;13793;55.388;37.844;2022-11-20T12:53:44;27.30;;;17.80;;
26014;SDS011;13793;55.388;37.844;2022-11-20T12:56:43;26.00;;;16.52;;
26014;SDS011;13793;55.388;37.844;2022-11-20T13:02:28;29.00;;;17.60;;
26014;SDS011;13793;55.388;37.844;2022-11-20T13:05:19;30.23;;;18.30;;
26014;SDS011;13793;55.388;37.844;2022-11-20T13:07:51;29.80;;;18.03;;
26014;SDS011;13793;55.388;37.844;2022-11-20T13:10:43;28.67;;;17.67;;
26014;SDS011;13793;55.388;37.844;2022-11-20T13:19:00;27.23;;;17.50;;
26014;SDS011;13793;55.388;37.844;2022-11-20T13:21:37;29.27;;;17.47;;
26014;SDS011;13793;55.388;37.844;2022-11-20T13:27:00;32.27;;;19.43;;
26014;SDS011;13793;55.388;37.844;2022-11-20T13:29:40;35.43;;;20.17;;
26014;SDS011;13793;55.388;37.844;2022-11-20T13:32:15;32.97;;;19.37;;
26014;SDS011;13793;55.388;37.844;2022-11-20T13:34:54;33.87;;;19.23;;
26014;SDS011;13793;55.388;37.844;2022-11-20T13:37:32;35.30;;;20.67;;
26014;SDS011;13793;55.388;37.844;2022-11-20T13:45:24;32.40;;;20.27;;
26014;SDS011;13793;55.388;37.844;2022-11-20T13:48:16;32.90;;;19.20;;
26014;SDS011;13793;55.388;37.844;2022-11-20T14:01:29;35.67;;;20.20;;
26014;SDS011;13793;55.388;37.844;2022-11-20T14:04:05;39.83;;;21.00;;
26014;SDS011;13793;55.388;37.844;2022-11-20T14:06:40;37.10;;;20.30;;
26014;SDS011;13793;55.388;37.844;2022-11-20T14:09:12;32.97;;;19.07;;
26014;SDS011;13793;55.388;37.844;2022-11-20T14:11:47;36.27;;;20.43;;
26014;SDS011;13793;55.388;37.844;2022-11-20T14:14:19;41.80;;;22.53;;
26014;SDS011;13793;55.388;37.844;2022-11-20T14:16:51;37.73;;;20.67;;
26014;SDS011;13793;55.388;37.844;2022-11-20T14:19:26;34.53;;;20.23;;
26014;SDS011;13793;55.388;37.844;2022-11-20T14:22:08;32.77;;;19.23;;
26014;SDS011;13793;55.388;37.844;2022-11-20T14:24:40;34.70;;;20.17;;
26014;SDS011;13793;55.388;37.844;2022-11-20T14:27:20;34.70;;;19.80;;
26014;SDS011;13793;55.388;37.844;2022-11-20T14:29:51;31.17;;;18.53;;
26014;SDS011;13793;55.388;37.844;2022-11-20T14:32:23;32.77;;;19.53;;
26014;SDS011;13793;55.388;37.844;2022-11-20T14:34:55;34.23;;;20.37;;
26014;SDS011;13793;55.388;37.844;2022-11-20T14:37:30;36.73;;;20.30;;
26014;SDS011;13793;55.388;37.844;2022-11-20T14:40:02;34.13;;;19.37;;
26014;SDS011;13793;55.388;37.844;2022-11-20T14:42:35;32.87;;;19.27;;
26014;SDS011;13793;55.388;37.844;2022-11-20T14:45:07;28.93;;;18.47;;
26014;SDS011;13793;55.388;37.844;2022-11-20T14:47:40;31.93;;;18.70;;
26014;SDS011;13793;55.388;37.844;2022-11-20T14:50:24;31.27;;;19.03;;
26014;SDS011;13793;55.388;37.844;2022-11-20T14:52:57;33.20;;;18.30;;
26014;SDS011;13793;55.388;37.844;2022-11-20T14:55:33;30.33;;;18.67;;
26014;SDS011;13793;55.388;37.844;2022-11-20T14:58:06;35.10;;;19.73;;
26014;SDS011;13793;55.388;37.844;2022-11-20T15:00:54;29.83;;;18.17;;
26014;SDS011;13793;55.388;37.844;2022-11-20T15:03:35;30.15;;;19.27;;
26014;SDS011;13793;55.388;37.844;2022-11-20T15:06:11;31.80;;;19.07;;
26014;SDS011;13793;55.388;37.844;2022-11-20T15:08:50;37.37;;;19.80;;
26014;SDS011;13793;55.388;37.844;2022-11-20T15:11:30;39.23;;;20.03;;
26014;SDS011;13793;55.388;37.844;2022-11-20T15:14:04;37.97;;;20.53;;
26014;SDS011;13793;55.388;37.844;2022-11-20T15:16:36;46.07;;;22.50;;
26014;SDS011;13793;55.388;37.844;2022-11-20T15:19:10;49.00;;;22.30;;
26014;SDS011;13793;55.388;37.844;2022-11-20T15:21:44;60.00;;;25.00;;
26014;SDS011;13793;55.388;37.844;2022-11-20T15:24:14;44.00;;;22.40;;
26014;SDS011;13793;55.388;37.844;2022-11-20T15:26:45;50.47;;;23.37;;
26014;SDS011;13793;55.388;37.844;2022-11-20T15:29:24;39.07;;;20.37;;
26014;SDS011;13793;55.388;37.844;2022-11-20T15:31:49;44.53;;;21.43;;
26014;SDS011;13793;55.388;37.844;2022-11-20T15:34:21;44.93;;;21.97;;
26014;SDS011;13793;55.388;37.844;2022-11-20T15:36:52;44.70;;;21.03;;
26014;SDS011;13793;55.388;37.844;2022-11-20T15:39:23;41.83;;;21.90;;
26014;SDS011;13793;55.388;37.844;2022-11-20T15:41:53;40.70;;;22.03;;
26014;SDS011;13793;55.388;37.844;2022-11-20T15:44:25;45.07;;;23.17;;
26014;SDS011;13793;55.388;37.844;2022-11-20T15:46:56;44.40;;;22.13;;
26014;SDS011;13793;55.388;37.844;2022-11-20T15:49:27;35.63;;;19.83;;
26014;SDS011;13793;55.388;37.844;2022-11-20T15:51:58;36.50;;;20.60;;
26014;SDS011;13793;55.388;37.844;2022-11-20T15:54:29;41.37;;;23.63;;
26014;SDS011;13793;55.388;37.844;2022-11-20T15:57:00;38.30;;;21.87;;
26014;SDS011;13793;55.388;37.844;2022-11-20T15:59:34;34.80;;;20.30;;
26014;SDS011;13793;55.388;37.844;2022-11-20T16:02:10;37.57;;;19.83;;
26014;SDS011;13793;55.388;37.844;2022-11-20T16:04:41;35.13;;;20.33;;
26014;SDS011;13793;55.388;37.844;2022-11-20T16:07:12;39.07;;;21.67;;
26014;SDS011;13793;55.388;37.844;2022-11-20T16:09:44;39.67;;;21.47;;
26014;SDS011;13793;55.388;37.844;2022-11-20T16:12:15;35.43;;;20.37;;